South Queensferry, United Kingdom
Current Conditions -  °F | °C
As of 10:20 PM on Thursday 18 Dec 2014 (Local Time) from EGPH Reporting Station
Few Clouds Few Clouds  
Wind Chill: 35°   Ceiling: Unl
Heat Index: 43°   Visibility: 6mi
Dew Point: 37°   Wind: 17mph
Humidity: 81%   Direction: 240°WSW
Pressure: 29.47"   Gusts: NA
Location:  55.99°N, 3.39°W
Report Text: EGPH 182220Z 24015KT 9999 FEW036 06/03 Q0998
Loading
Personal Weather Stations






























Interactive Weather Map New forecast layout! Learn more

10-Day Weather Forecast

Advertisements
Track Severe Weather on mobile